Rotterdam, Netherlands

6:20 PM CEST on August 30, 2016 (GMT +0200)
Rotterdam | | Change Station

Elev -16 ft 51.95 °N, 4.44 °E | Updated 25 minutes ago

Partly Cloudy
Partly Cloudy
73 °F
Feels Like 73 °F
N
5
Wind Variable Wind from NNW

Today
High -- | Low -- °F
--% Chance of Precip.
Yesterday
High -- | Low -- °F
Precip. -- in
Pressure 30.24 in
Visibility 6.2 miles
Clouds Few 3500 ft
Dew Point 61 °F
Humidity 65%
Rainfall 0.00 in
Snow Depth Not available.
6:51 AM 8:32 PM
Waning Crescent, 3% visible
METAR EHRD 301555Z AUTO 34004KT 280V010 9999 FEW035 23/16 Q1024 NOSIG
Pressure 30.24 in
Visibility 6.2 miles
Clouds Few 3500 ft
Dew Point 61 °F
Humidity 65%
Rainfall 0.00 in
Snow Depth Not available.
6:51 AM 8:32 PM
Waning Crescent, 3% visible
METAR EHRD 301555Z AUTO 34004KT 280V010 9999 FEW035 23/16 Q1024 NOSIG

10-Day Weather Forecast

×

Almanac

Astronomy

Aug. 30, 2016 Rise Set
Actual Time
Civil Twilight
Nautical Twilight
Astronomical Twilight
Moon
Length of Visible Light
Length of Day
Tomorrow will be .
, % of the Moon is Illuminated

Today's Extremes

Country Highs Country Lows

Community

WunderPhotos

Upload Photos

1,935,861 photos uploaded!

WunderBlog® & News

Nearby

Air Quality

  Air Quality AQ Index Pollutant
Not available.

Snow Depth

Station Depth Elevation

Earthquake Activity

City Distance Mag. Time & Date
Minimum magnitude displayed is 2.5.

Coastal Water Temperatures

Place Temperature

Stations

Nearby Weather Stations

Station Location Temp. Windchill Dew Point Humidity Wind Precip. Elev Updated Type